createdAt,value
2022-10-21T00:00:58.821Z,27.8
2022-10-21T00:02:01.299Z,27.7
2022-10-21T00:03:03.520Z,27.9
2022-10-21T00:04:05.999Z,27.5
2022-10-21T00:05:07.906Z,28.3
2022-10-21T00:06:10.404Z,28.1
2022-10-21T00:07:12.902Z,28
2022-10-21T00:08:15.444Z,27.6
2022-10-21T00:09:17.653Z,27.9
2022-10-21T00:10:20.145Z,27.8
2022-10-21T00:11:22.355Z,28
2022-10-21T00:12:24.823Z,27.9
2022-10-21T00:13:27.298Z,27.9
2022-10-21T00:14:29.780Z,27.8
2022-10-21T00:15:32.249Z,28
2022-10-21T00:16:34.726Z,28
2022-10-21T00:17:37.200Z,28.2
2022-10-21T00:18:39.697Z,28.2
2022-10-21T00:19:41.899Z,28
2022-10-21T00:20:44.376Z,28
2022-10-21T00:21:46.907Z,28
2022-10-21T00:22:49.088Z,28
2022-10-21T00:23:51.352Z,28.1
2022-10-21T00:24:53.548Z,28
2022-10-21T00:25:56.018Z,28
2022-10-21T00:26:58.204Z,28.1
2022-10-21T00:28:00.671Z,28.2
2022-10-21T00:29:02.878Z,28.2
2022-10-21T00:30:04.816Z,28.1
2022-10-21T00:31:07.013Z,28.1
2022-10-21T00:32:09.203Z,28.1
2022-10-21T00:33:11.692Z,27.9
2022-10-21T00:34:13.895Z,28.1
2022-10-21T00:35:16.387Z,28.1
2022-10-21T00:36:18.571Z,27.8
2022-10-21T00:37:21.074Z,28.3
2022-10-21T00:38:23.571Z,28.2
2022-10-21T00:39:26.141Z,28.2
2022-10-21T00:40:28.412Z,28.4
2022-10-21T00:41:30.902Z,28.2
2022-10-21T00:42:33.105Z,28.2
2022-10-21T00:43:36.147Z,28.2
2022-10-21T00:44:38.616Z,28.3
2022-10-21T00:45:40.551Z,28.4
2022-10-21T00:46:43.022Z,28.2
2022-10-21T00:47:45.494Z,28
2022-10-21T00:48:48.789Z,28.2
2022-10-21T00:49:51.285Z,28.1
2022-10-21T00:50:53.468Z,28.3
2022-10-21T00:51:55.680Z,28.2
2022-10-21T00:52:58.160Z,28.2
2022-10-21T00:54:00.640Z,28.3
2022-10-21T00:55:03.189Z,28.3
2022-10-21T00:56:05.712Z,28.3
2022-10-21T00:57:09.027Z,28.2
2022-10-21T00:58:10.678Z,28.1
2022-10-21T00:59:13.143Z,28.2
2022-10-21T01:00:15.609Z,28.3
2022-10-21T01:01:20.583Z,28.4
2022-10-21T01:02:23.069Z,28.2
2022-10-21T01:03:25.286Z,28.1
2022-10-21T01:04:27.756Z,28.3
2022-10-21T01:05:30.235Z,28.3
2022-10-21T01:06:32.163Z,28.3
2022-10-21T01:07:36.311Z,28.5
2022-10-21T01:08:39.728Z,28.4
2022-10-21T01:09:42.706Z,28.4
2022-10-21T01:10:45.236Z,28.1
2022-10-21T01:11:47.410Z,28.3
2022-10-21T01:12:49.883Z,28.3
2022-10-21T01:13:52.348Z,28.1
2022-10-21T01:14:54.846Z,28.6
2022-10-21T01:15:57.323Z,28.3
2022-10-21T01:16:59.524Z,28.3
2022-10-21T01:18:01.751Z,28.6
2022-10-21T01:19:04.219Z,28.3
2022-10-21T01:20:06.134Z,28.4
2022-10-21T01:21:08.626Z,28.3
2022-10-21T01:22:11.099Z,28.3
2022-10-21T01:23:13.324Z,28.1
2022-10-21T01:24:15.517Z,28.1
2022-10-21T01:25:17.725Z,28.1
2022-10-21T01:26:20.253Z,28.4
2022-10-21T01:27:22.723Z,28.2
2022-10-21T01:28:24.900Z,28.3
2022-10-21T01:29:27.377Z,28.6
2022-10-21T01:30:29.864Z,28.3
2022-10-21T01:31:32.335Z,28.5
2022-10-21T01:32:34.270Z,28.3
2022-10-21T01:33:36.746Z,28.7
2022-10-21T01:34:38.947Z,28.3
2022-10-21T01:35:41.144Z,28.1
2022-10-21T01:36:43.629Z,28.3
2022-10-21T01:37:46.143Z,28.3
2022-10-21T01:38:48.871Z,28.2
2022-10-21T01:39:50.776Z,28.4
2022-10-21T01:40:53.277Z,28
2022-10-21T01:41:55.612Z,28.2
2022-10-21T01:42:58.455Z,28.4
2022-10-21T01:44:00.666Z,28.2
2022-10-21T01:45:02.840Z,28.3
2022-10-21T01:46:04.758Z,28.1
2022-10-21T01:47:07.232Z,28.3
2022-10-21T01:48:09.701Z,28.2
2022-10-21T01:49:12.181Z,28.2
2022-10-21T01:50:14.391Z,28.1
2022-10-21T01:51:16.976Z,28.1
2022-10-21T01:52:19.501Z,28.1
2022-10-21T01:53:21.964Z,28.1
2022-10-21T01:54:24.444Z,28.1
2022-10-21T01:55:26.916Z,28.2
2022-10-21T01:56:29.421Z,28.1
2022-10-21T01:57:31.684Z,28.2
2022-10-21T01:58:33.865Z,28.2
2022-10-21T01:59:36.065Z,28.1
2022-10-21T02:00:38.572Z,28.1
2022-10-21T02:01:41.426Z,28.6
2022-10-21T02:02:43.912Z,28.2
2022-10-21T02:03:46.391Z,28.1
2022-10-21T02:04:48.290Z,27.9
2022-10-21T02:05:50.764Z,28
2022-10-21T02:06:52.706Z,28
2022-10-21T02:07:55.196Z,28.1
2022-10-21T02:08:57.729Z,28.1
2022-10-21T02:10:00.682Z,28.1
2022-10-21T02:11:03.156Z,28.1
2022-10-21T02:12:05.381Z,28
2022-10-21T02:13:08.150Z,28.1
2022-10-21T02:14:10.629Z,28
2022-10-21T02:15:12.842Z,28
2022-10-21T02:16:14.761Z,27.9
2022-10-21T02:17:17.230Z,28.2
2022-10-21T02:18:19.698Z,28.1
2022-10-21T02:19:21.949Z,28.1
2022-10-21T02:20:24.535Z,28
2022-10-21T02:21:27.002Z,27.9
2022-10-21T02:22:28.930Z,27.9
2022-10-21T02:23:31.148Z,28
2022-10-21T02:24:33.354Z,28.1
2022-10-21T02:25:35.564Z,28.3
2022-10-21T02:26:38.407Z,28.1
2022-10-21T02:27:40.608Z,28.3
2022-10-21T02:28:42.886Z,28.1
2022-10-21T02:29:45.089Z,28.3
2022-10-21T02:30:47.573Z,28.2
2022-10-21T02:31:50.037Z,28
2022-10-21T02:32:51.958Z,28.1
2022-10-21T02:33:53.860Z,28
2022-10-21T02:34:56.060Z,28.1
2022-10-21T02:35:58.530Z,28.1
2022-10-21T02:37:00.733Z,28.1
2022-10-21T02:38:02.901Z,28
2022-10-21T02:39:05.117Z,28.2
2022-10-21T02:40:07.599Z,28
2022-10-21T02:41:10.069Z,28
2022-10-21T02:42:12.567Z,28.2
2022-10-21T02:43:14.780Z,28.1
2022-10-21T02:44:17.047Z,28.2
2022-10-21T02:45:19.505Z,28.2
2022-10-21T02:46:21.978Z,28.1
2022-10-21T02:47:24.174Z,28.3
2022-10-21T02:48:26.651Z,28.1
2022-10-21T02:49:28.856Z,27.9
2022-10-21T02:50:31.052Z,28.2
2022-10-21T02:51:33.531Z,28.2
2022-10-21T02:52:35.457Z,28.2
2022-10-21T02:53:38.204Z,28.1
2022-10-21T02:54:40.686Z,28.2
2022-10-21T02:55:43.175Z,28.1
2022-10-21T02:56:45.389Z,28.1
2022-10-21T02:57:47.858Z,28.3
2022-10-21T02:58:50.353Z,28
2022-10-21T02:59:52.879Z,28
2022-10-21T03:00:55.386Z,28.1
2022-10-21T03:01:58.175Z,28.2
2022-10-21T03:03:00.361Z,28.3
2022-10-21T03:04:02.826Z,28.1
2022-10-21T03:05:05.301Z,28
2022-10-21T03:06:07.490Z,28
2022-10-21T03:07:10.024Z,27.8
2022-10-21T03:08:11.944Z,27.8
2022-10-21T03:09:14.415Z,27.9
2022-10-21T03:10:16.900Z,27.8
2022-10-21T03:11:18.824Z,27.8
2022-10-21T03:12:21.290Z,27.9
2022-10-21T03:13:23.764Z,27.6
2022-10-21T03:14:26.243Z,28
2022-10-21T03:15:28.784Z,27.8
2022-10-21T03:16:31.241Z,27.8
2022-10-21T03:17:33.713Z,27.7
2022-10-21T03:18:35.903Z,27.6
2022-10-21T03:19:38.379Z,27.8
2022-10-21T03:20:40.365Z,27.5
2022-10-21T03:21:42.851Z,27.7
2022-10-21T03:22:44.768Z,27.8
2022-10-21T03:23:47.269Z,27.6
2022-10-21T03:24:49.744Z,27.4
2022-10-21T03:25:52.235Z,27.7
2022-10-21T03:26:54.704Z,27.6
2022-10-21T03:27:57.183Z,27.6
2022-10-21T03:28:59.366Z,27.6
2022-10-21T03:30:01.862Z,27.7
2022-10-21T03:31:04.132Z,27.4
2022-10-21T03:32:06.355Z,27.4
2022-10-21T03:33:08.537Z,27.5
2022-10-21T03:34:11.014Z,27.4
2022-10-21T03:35:13.223Z,27.5
2022-10-21T03:36:15.507Z,27.7
2022-10-21T03:37:18.001Z,27.4
2022-10-21T03:38:20.222Z,27.3
2022-10-21T03:39:22.436Z,27.3
2022-10-21T03:40:24.908Z,27.5
2022-10-21T03:41:27.418Z,27.6
2022-10-21T03:42:29.883Z,27.2
2022-10-21T03:43:32.351Z,27.3
2022-10-21T03:44:34.825Z,27.2
2022-10-21T03:45:37.319Z,27.5
2022-10-21T03:46:39.847Z,27.5
2022-10-21T03:47:41.766Z,27.7
2022-10-21T03:48:44.235Z,27.4
2022-10-21T03:49:46.157Z,27.6
2022-10-21T03:50:48.352Z,27.4
2022-10-21T03:51:50.822Z,27.3
2022-10-21T03:52:53.295Z,27.3
2022-10-21T03:53:55.488Z,27.2
2022-10-21T03:54:57.974Z,27.8
2022-10-21T03:56:00.162Z,27.3
2022-10-21T03:57:02.639Z,27.7
2022-10-21T03:58:04.835Z,27.7
2022-10-21T03:59:07.311Z,27.5
2022-10-21T04:00:09.562Z,27
2022-10-21T04:01:13.342Z,27.7
2022-10-21T04:02:16.238Z,27.5
2022-10-21T04:03:18.434Z,26.9
2022-10-21T04:04:20.925Z,27.2
2022-10-21T04:05:23.428Z,27.4
2022-10-21T04:06:25.627Z,27.6
2022-10-21T04:07:27.815Z,26.9
2022-10-21T04:08:30.338Z,26.9
2022-10-21T04:09:32.751Z,27.6
2022-10-21T04:10:35.226Z,27.5
2022-10-21T04:11:38.238Z,27.2
2022-10-21T04:12:40.999Z,27.3
2022-10-21T04:13:43.526Z,27.3
2022-10-21T04:14:45.728Z,27
2022-10-21T04:15:48.196Z,27.2
2022-10-21T04:16:57.546Z,27.5
2022-10-21T04:17:55.709Z,27
2022-10-21T04:18:58.214Z,27.7
2022-10-21T04:20:00.704Z,27.4
2022-10-21T04:21:03.173Z,27
2022-10-21T04:22:05.119Z,27.7
2022-10-21T04:23:07.335Z,27.6
2022-10-21T04:24:09.805Z,27
2022-10-21T04:25:12.269Z,27.4
2022-10-21T04:26:14.178Z,27.8
2022-10-21T04:27:16.640Z,27.2
2022-10-21T04:28:18.854Z,27.1
2022-10-21T04:29:21.059Z,27.4
2022-10-21T04:30:23.546Z,27
2022-10-21T04:31:28.545Z,27.3
2022-10-21T04:32:31.005Z,27.4
2022-10-21T04:33:33.247Z,27.4
2022-10-21T04:34:35.739Z,27.2
2022-10-21T04:35:37.400Z,27.4
2022-10-21T04:36:39.975Z,27.6
2022-10-21T04:37:42.265Z,27.1
2022-10-21T04:38:44.736Z,27.4
2022-10-21T04:39:47.242Z,27.4
2022-10-21T04:40:49.425Z,27.3
2022-10-21T04:41:51.894Z,27.3
2022-10-21T04:42:54.075Z,27
2022-10-21T04:43:56.271Z,27.5
2022-10-21T04:44:58.446Z,27.4
2022-10-21T04:46:00.624Z,27.1
2022-10-21T04:47:02.526Z,27.4
2022-10-21T04:48:04.729Z,27.4
2022-10-21T04:49:07.238Z,27.4
2022-10-21T04:50:09.466Z,27.2
2022-10-21T04:51:11.677Z,26.9
2022-10-21T04:52:14.142Z,27.6
2022-10-21T04:53:16.340Z,27.4
2022-10-21T04:54:18.540Z,27
2022-10-21T04:55:21.027Z,26.8
2022-10-21T04:56:23.212Z,26.8
2022-10-21T04:57:25.685Z,27.4
2022-10-21T04:58:28.164Z,27.4
2022-10-21T04:59:30.669Z,27.2
2022-10-21T05:00:32.964Z,27.2
2022-10-21T05:01:35.750Z,27.4
2022-10-21T05:02:38.223Z,26.9
2022-10-21T05:03:42.740Z,27.2
2022-10-21T05:04:45.257Z,27.7
2022-10-21T05:05:47.765Z,26.9
2022-10-21T05:06:50.232Z,26.9
2022-10-21T05:07:52.172Z,27.3
2022-10-21T05:08:53.869Z,27.4
2022-10-21T05:09:56.792Z,26.7
2022-10-21T05:10:58.706Z,27.5
2022-10-21T05:12:00.904Z,27.3
2022-10-21T05:13:03.364Z,27.1
2022-10-21T05:14:05.844Z,27.1
2022-10-21T05:15:08.320Z,27.4
2022-10-21T05:16:10.521Z,27.1
2022-10-21T05:17:12.976Z,27.3
2022-10-21T05:18:15.184Z,27.1
2022-10-21T05:19:17.382Z,26.9
2022-10-21T05:20:19.616Z,27
2022-10-21T05:21:22.112Z,27
2022-10-21T05:22:24.434Z,27.1
2022-10-21T05:23:26.903Z,27.4
2022-10-21T05:24:29.373Z,27.2
2022-10-21T05:25:33.287Z,27.3
2022-10-21T05:26:36.569Z,27.1
2022-10-21T05:27:38.752Z,27.4
2022-10-21T05:28:40.948Z,27.1
2022-10-21T05:29:43.421Z,27.3
2022-10-21T05:30:45.399Z,27
2022-10-21T05:31:47.634Z,26.8
2022-10-21T05:32:50.111Z,26.8
2022-10-21T05:33:52.579Z,26.7
2022-10-21T05:34:55.051Z,26.9
2022-10-21T05:35:57.561Z,27.5
2022-10-21T05:36:59.827Z,26.7
2022-10-21T05:38:02.292Z,27
2022-10-21T05:39:04.528Z,27.3
2022-10-21T05:40:06.456Z,26.9
2022-10-21T05:41:08.949Z,27
2022-10-21T05:42:10.848Z,27
2022-10-21T05:43:13.325Z,27
2022-10-21T05:44:15.528Z,26.9
2022-10-21T05:45:17.711Z,27.2
2022-10-21T05:46:20.206Z,27.3
2022-10-21T05:47:22.132Z,27
2022-10-21T05:48:24.595Z,27.1
2022-10-21T05:49:26.794Z,26.9
2022-10-21T05:50:29.263Z,27.1
2022-10-21T05:51:31.788Z,27.3
2022-10-21T05:52:34.308Z,27.1
2022-10-21T05:53:37.277Z,27
2022-10-21T05:54:39.174Z,27
2022-10-21T05:55:41.642Z,27.2
2022-10-21T05:56:44.124Z,26.9
2022-10-21T05:57:46.368Z,27
2022-10-21T05:58:49.036Z,27
2022-10-21T05:59:50.949Z,27.2
2022-10-21T06:00:52.605Z,27.4
2022-10-21T06:01:55.137Z,27
2022-10-21T06:02:57.343Z,26.9
2022-10-21T06:03:59.271Z,27
2022-10-21T06:05:01.183Z,26.9
2022-10-21T06:06:03.388Z,26.9
2022-10-21T06:07:05.938Z,26.9
2022-10-21T06:08:08.447Z,27
2022-10-21T06:09:10.948Z,27.1
2022-10-21T06:10:13.337Z,27.1
2022-10-21T06:11:15.806Z,26.9
2022-10-21T06:12:18.004Z,26.8
2022-10-21T06:13:20.207Z,27.1
2022-10-21T06:14:22.682Z,27.1
2022-10-21T06:15:24.853Z,27.4
2022-10-21T06:16:27.327Z,27.1
2022-10-21T06:17:29.833Z,27.1
2022-10-21T06:18:32.033Z,27.4
2022-10-21T06:19:34.243Z,26.9
2022-10-21T06:20:36.438Z,26.8
2022-10-21T06:21:38.376Z,27
2022-10-21T06:22:40.914Z,27.1
2022-10-21T06:23:43.431Z,27.3
2022-10-21T06:24:45.672Z,27.1
2022-10-21T06:25:47.888Z,27.2
2022-10-21T06:26:50.093Z,27.1
2022-10-21T06:27:52.572Z,27
2022-10-21T06:28:54.779Z,27
2022-10-21T06:29:56.174Z,27.3
2022-10-21T06:30:58.090Z,27.3
2022-10-21T06:32:00.018Z,27.2
2022-10-21T06:33:02.497Z,27.3
2022-10-21T06:34:04.692Z,27.1
2022-10-21T06:35:07.486Z,27.1
2022-10-21T06:36:09.706Z,27.3
2022-10-21T06:37:11.908Z,27.1
2022-10-21T06:38:14.152Z,27
2022-10-21T06:39:16.660Z,27.3
2022-10-21T06:40:19.139Z,26.9
2022-10-21T06:41:21.345Z,27
2022-10-21T06:42:23.827Z,27.4
2022-10-21T06:43:26.341Z,27.1
2022-10-21T06:44:28.892Z,26.9
2022-10-21T06:45:31.361Z,26.9
2022-10-21T06:46:33.553Z,27.6
2022-10-21T06:47:35.496Z,27
2022-10-21T06:48:39.594Z,27.1
2022-10-21T06:49:42.093Z,27
2022-10-21T06:50:44.014Z,27
2022-10-21T06:51:46.216Z,27
2022-10-21T06:52:48.418Z,27
2022-10-21T06:53:50.929Z,27.2
2022-10-21T06:54:53.192Z,26.9
2022-10-21T06:55:55.996Z,27.2
2022-10-21T06:56:58.488Z,26.8
2022-10-21T06:58:00.970Z,27.2
2022-10-21T06:59:02.924Z,27.5
2022-10-21T07:00:05.738Z,27.1
2022-10-21T07:01:12.403Z,27.1
2022-10-21T07:02:12.939Z,27.2
2022-10-21T07:03:15.150Z,27.2
2022-10-21T07:04:17.076Z,26.8
2022-10-21T07:05:19.279Z,27.4
2022-10-21T07:06:21.837Z,27
2022-10-21T07:07:24.515Z,27.2
2022-10-21T07:08:40.239Z,27.2
2022-10-21T07:09:32.147Z,27.2
2022-10-21T07:10:34.936Z,27
2022-10-21T07:11:37.431Z,26.9
2022-10-21T07:12:39.915Z,27.2
2022-10-21T07:13:42.399Z,27.2
2022-10-21T07:14:44.887Z,27.1
2022-10-21T07:15:47.408Z,27.1
2022-10-21T07:16:50.079Z,27.1
2022-10-21T07:17:52.589Z,27.1
2022-10-21T07:18:55.066Z,27
2022-10-21T07:19:57.583Z,27
2022-10-21T07:20:59.512Z,27
2022-10-21T07:22:01.993Z,27
2022-10-21T07:23:04.473Z,27.3
2022-10-21T07:24:06.683Z,27.2
2022-10-21T07:25:08.630Z,27.1
2022-10-21T07:26:11.195Z,26.8
2022-10-21T07:27:13.388Z,27
2022-10-21T07:28:15.870Z,27
2022-10-21T07:29:18.099Z,27
2022-10-21T07:30:20.281Z,27
2022-10-21T07:31:22.482Z,27.2
2022-10-21T07:32:24.967Z,27.1
2022-10-21T07:33:26.907Z,27
2022-10-21T07:34:29.096Z,27.2
2022-10-21T07:35:31.605Z,26.9
2022-10-21T07:36:34.088Z,27
2022-10-21T07:37:36.837Z,27
2022-10-21T07:38:41.098Z,26.9
2022-10-21T07:39:43.575Z,27.1
2022-10-21T07:40:45.535Z,27.2
2022-10-21T07:41:48.087Z,27.3
2022-10-21T07:42:50.564Z,27.1
2022-10-21T07:43:53.055Z,27.1
2022-10-21T07:44:55.541Z,26.9
2022-10-21T07:45:59.766Z,27.3
2022-10-21T07:47:03.018Z,27.2
2022-10-21T07:48:05.523Z,27
2022-10-21T07:49:07.463Z,27.1
2022-10-21T07:50:09.683Z,26.8
2022-10-21T07:51:11.907Z,27.2
2022-10-21T07:53:17.460Z,27
2022-10-21T07:54:21.727Z,26.9
2022-10-21T07:55:23.942Z,27.2
2022-10-21T07:56:26.458Z,26.9
2022-10-21T07:57:28.986Z,27
2022-10-21T07:58:31.458Z,27
2022-10-21T07:59:33.940Z,26.8
2022-10-21T08:00:36.529Z,27.1
2022-10-21T08:01:39.188Z,26.8
2022-10-21T08:02:42.510Z,27
2022-10-21T08:03:44.695Z,27.2
2022-10-21T08:04:46.871Z,27
2022-10-21T08:05:49.057Z,27.1
2022-10-21T08:06:51.264Z,26.9
2022-10-21T08:07:53.758Z,27
2022-10-21T08:08:55.972Z,27
2022-10-21T08:09:58.262Z,26.8
2022-10-21T08:11:00.736Z,27
2022-10-21T08:12:04.133Z,26.9
2022-10-21T08:13:06.389Z,27
2022-10-21T08:14:08.336Z,27.1
2022-10-21T08:15:10.812Z,27
2022-10-21T08:16:13.285Z,27
2022-10-21T08:17:15.785Z,27
2022-10-21T08:18:18.005Z,27
2022-10-21T08:19:19.916Z,27.3
2022-10-21T08:20:22.127Z,26.9
2022-10-21T08:21:24.339Z,26.9
2022-10-21T08:22:26.542Z,26.9
2022-10-21T08:23:29.032Z,27.2
2022-10-21T08:24:31.220Z,26.9
2022-10-21T08:25:33.696Z,26.9
2022-10-21T08:26:35.912Z,26.9
2022-10-21T08:27:38.110Z,27
2022-10-21T08:28:40.640Z,27.1
2022-10-21T08:29:42.581Z,27.1
2022-10-21T08:30:45.079Z,27
2022-10-21T08:31:47.558Z,26.9
2022-10-21T08:32:50.050Z,27
2022-10-21T08:33:52.256Z,27.1
2022-10-21T08:34:54.763Z,27
2022-10-21T08:35:57.236Z,27.1
2022-10-21T08:36:58.933Z,27.1
2022-10-21T08:38:01.180Z,27.1
2022-10-21T08:39:03.741Z,27
2022-10-21T08:40:05.939Z,26.9
2022-10-21T08:41:08.440Z,27.1
2022-10-21T08:42:10.915Z,27.2
2022-10-21T08:43:12.590Z,27.1
2022-10-21T08:44:15.127Z,27.1
2022-10-21T08:45:17.613Z,27.1
2022-10-21T08:46:20.088Z,26.9
2022-10-21T08:47:22.264Z,27
2022-10-21T08:48:24.764Z,27
2022-10-21T08:49:28.596Z,27
2022-10-21T08:50:32.290Z,27
2022-10-21T08:51:34.769Z,26.9
2022-10-21T08:52:37.267Z,26.8
2022-10-21T08:53:39.203Z,26.9
2022-10-21T08:54:41.110Z,26.9
2022-10-21T08:55:43.641Z,27.1
2022-10-21T08:56:46.141Z,27.2
2022-10-21T08:57:48.443Z,26.9
2022-10-21T08:58:50.958Z,26.9
2022-10-21T08:59:53.542Z,27.1
2022-10-21T09:00:55.763Z,27
2022-10-21T09:01:58.249Z,27
2022-10-21T09:03:00.246Z,26.7
2022-10-21T09:04:02.994Z,26.9
2022-10-21T09:05:04.918Z,26.9
2022-10-21T09:06:07.405Z,27.1
2022-10-21T09:07:09.332Z,27
2022-10-21T09:08:11.529Z,27
2022-10-21T09:09:13.832Z,26.9
2022-10-21T09:10:16.708Z,26.9
2022-10-21T09:11:19.259Z,27.1
2022-10-21T09:12:21.476Z,26.9
2022-10-21T09:13:23.388Z,26.9
2022-10-21T09:14:25.652Z,26.8
2022-10-21T09:15:28.526Z,26.9
2022-10-21T09:16:30.740Z,26.8
2022-10-21T09:17:33.239Z,27.2
2022-10-21T09:18:35.175Z,27
2022-10-21T09:19:37.659Z,26.8
2022-10-21T09:20:40.168Z,26.9
2022-10-21T09:21:42.847Z,27
2022-10-21T09:22:45.671Z,26.8
2022-10-21T09:23:48.460Z,27
2022-10-21T09:24:50.976Z,26.8
2022-10-21T09:25:52.894Z,26.9
2022-10-21T09:26:55.120Z,27
2022-10-21T09:27:57.562Z,27.2
2022-10-21T09:29:02.207Z,26.7
2022-10-21T09:30:04.168Z,26.8
2022-10-21T09:31:06.707Z,26.9
2022-10-21T09:32:08.627Z,27
2022-10-21T09:33:11.096Z,26.9
2022-10-21T09:34:13.588Z,26.9
2022-10-21T09:35:15.906Z,27
2022-10-21T09:36:18.091Z,27
2022-10-21T09:37:20.301Z,27
2022-10-21T09:38:22.504Z,27.1
2022-10-21T09:39:24.717Z,27
2022-10-21T09:40:27.236Z,26.9
2022-10-21T09:41:29.734Z,26.9
2022-10-21T09:42:48.255Z,27
2022-10-21T09:43:36.659Z,26.9
2022-10-21T09:44:39.163Z,26.8
2022-10-21T09:45:41.366Z,27
2022-10-21T09:46:43.917Z,27
2022-10-21T09:47:46.467Z,27
2022-10-21T09:50:06.741Z,26.8
2022-10-21T09:50:58.404Z,27
2022-10-21T09:52:00.340Z,27.2
2022-10-21T09:53:02.539Z,26.9
2022-10-21T09:54:04.761Z,26.8
2022-10-21T09:55:06.987Z,26.8
2022-10-21T09:56:09.495Z,27.1
2022-10-21T09:57:11.958Z,27.1
2022-10-21T09:58:14.463Z,26.9
2022-10-21T09:59:16.656Z,26.8
2022-10-21T10:00:18.553Z,26.9
2022-10-21T10:01:20.528Z,26.8
2022-10-21T10:02:23.118Z,26.9
2022-10-21T10:03:25.112Z,26.9
2022-10-21T10:04:27.581Z,26.9
2022-10-21T10:05:29.785Z,26.9
2022-10-21T10:06:31.998Z,26.8
2022-10-21T10:07:34.182Z,27.3
2022-10-21T10:08:36.781Z,27.2
2022-10-21T10:09:39.685Z,27
2022-10-21T10:10:41.886Z,27
2022-10-21T10:11:44.110Z,27.1
2022-10-21T10:12:46.590Z,27
2022-10-21T10:13:48.546Z,27.1
2022-10-21T10:14:50.173Z,27.2
2022-10-21T10:15:52.370Z,26.9
2022-10-21T10:16:54.323Z,27.1
2022-10-21T10:17:56.585Z,26.7
2022-10-21T10:18:59.065Z,26.8
2022-10-21T10:20:00.996Z,26.9
2022-10-21T10:21:03.489Z,26.7
2022-10-21T10:22:09.997Z,26.9
2022-10-21T10:23:10.970Z,26.8
2022-10-21T10:24:13.435Z,26.9
2022-10-21T10:25:14.880Z,26.8
2022-10-21T10:26:16.795Z,27
2022-10-21T10:27:18.753Z,26.9
2022-10-21T10:28:20.938Z,26.8
2022-10-21T10:29:22.862Z,26.6
2022-10-21T10:30:24.787Z,27
2022-10-21T10:31:26.726Z,26.8
2022-10-21T10:32:29.030Z,26.7
2022-10-21T10:33:31.575Z,27.2
2022-10-21T10:34:34.115Z,26.8
2022-10-21T10:35:36.592Z,26.6
2022-10-21T10:36:39.066Z,26.9
2022-10-21T10:38:45.077Z,26.9
2022-10-21T10:39:47.548Z,26.9
2022-10-21T10:40:50.036Z,27
2022-10-21T10:41:56.892Z,26.8
2022-10-21T10:42:59.480Z,26.7
2022-10-21T10:44:01.958Z,26.8
2022-10-21T10:45:04.434Z,27.1
2022-10-21T10:46:06.401Z,26.8
2022-10-21T10:47:08.616Z,26.6
2022-10-21T10:48:10.947Z,26.8
2022-10-21T10:49:13.598Z,26.9
2022-10-21T10:50:16.086Z,26.9
2022-10-21T10:51:18.337Z,27
2022-10-21T10:52:20.560Z,26.6
2022-10-21T10:53:23.100Z,26.8
2022-10-21T10:54:25.375Z,27
2022-10-21T10:55:27.560Z,26.9
2022-10-21T10:56:29.761Z,26.9
2022-10-21T10:57:35.357Z,26.9
2022-10-21T10:58:36.964Z,26.9
2022-10-21T10:59:39.258Z,26.7
2022-10-21T11:00:41.260Z,26.9
2022-10-21T11:01:44.282Z,26.9
2022-10-21T11:02:45.942Z,27
2022-10-21T11:03:48.525Z,27
2022-10-21T11:04:51.357Z,26.9
2022-10-21T11:05:54.687Z,26.9
2022-10-21T11:06:56.369Z,26.8
2022-10-21T11:07:58.573Z,27.1
2022-10-21T11:09:01.117Z,26.9
2022-10-21T11:10:03.454Z,26.9
2022-10-21T11:11:05.937Z,27.1
2022-10-21T11:12:07.864Z,26.9
2022-10-21T11:13:10.072Z,26.9
2022-10-21T11:14:12.598Z,27
2022-10-21T11:15:18.078Z,27
2022-10-21T11:16:20.384Z,26.9
2022-10-21T11:17:22.846Z,27
2022-10-21T11:18:25.476Z,27
2022-10-21T11:19:27.859Z,26.8
2022-10-21T11:20:30.446Z,26.8
2022-10-21T11:21:32.936Z,26.7
2022-10-21T11:22:34.902Z,26.8
2022-10-21T11:23:37.103Z,26.8
2022-10-21T11:24:39.021Z,26.9
2022-10-21T11:25:41.256Z,26.9
2022-10-21T11:26:43.453Z,26.9
2022-10-21T11:27:45.679Z,27.1
2022-10-21T11:28:47.774Z,26.9
2022-10-21T11:29:50.257Z,27
2022-10-21T11:30:52.449Z,27
2022-10-21T11:32:10.495Z,26.8
2022-10-21T11:32:59.763Z,27
2022-10-21T11:34:01.133Z,27
2022-10-21T11:35:03.452Z,27
2022-10-21T11:36:06.266Z,26.9
2022-10-21T11:37:08.750Z,26.8
2022-10-21T11:38:10.940Z,26.8
2022-10-21T11:39:12.894Z,26.8
2022-10-21T11:40:19.080Z,26.8
2022-10-21T11:41:22.883Z,26.8
2022-10-21T11:42:26.555Z,26.9
2022-10-21T11:43:28.749Z,26.8
2022-10-21T11:44:30.948Z,26.9
2022-10-21T11:45:32.865Z,26.9
2022-10-21T11:46:35.079Z,26.9
2022-10-21T11:47:37.665Z,27
2022-10-21T11:48:39.840Z,27
2022-10-21T11:49:42.056Z,26.9
2022-10-21T11:50:44.645Z,27.1
2022-10-21T11:51:47.485Z,27
2022-10-21T11:52:49.972Z,26.7
2022-10-21T11:53:51.898Z,26.8
2022-10-21T11:55:08.544Z,27
2022-10-21T11:55:59.368Z,26.9
2022-10-21T11:57:01.843Z,26.9
2022-10-21T11:58:04.044Z,26.9
2022-10-21T11:59:06.243Z,26.8
2022-10-21T12:00:08.715Z,26.8
2022-10-21T12:01:11.192Z,26.9
2022-10-21T12:02:13.715Z,26.8
2022-10-21T12:03:16.754Z,26.9
2022-10-21T12:04:19.234Z,26.9
2022-10-21T12:05:21.217Z,26.9
2022-10-21T12:06:23.242Z,26.8
2022-10-21T12:07:26.065Z,26.8
2022-10-21T12:08:28.604Z,26.8
2022-10-21T12:09:30.827Z,26.9
2022-10-21T12:10:33.321Z,26.9
2022-10-21T12:11:35.839Z,27.2
2022-10-21T12:12:38.557Z,26.8
2022-10-21T12:13:42.997Z,26.8
2022-10-21T12:14:44.907Z,27
2022-10-21T12:15:47.127Z,27.2
2022-10-21T12:16:49.613Z,27
2022-10-21T12:17:52.102Z,27
2022-10-21T12:18:54.491Z,26.9
2022-10-21T12:19:56.999Z,27.2
2022-10-21T12:20:59.225Z,26.8
2022-10-21T12:22:01.541Z,27
2022-10-21T12:23:04.353Z,27.1
2022-10-21T12:24:06.540Z,27
2022-10-21T12:25:08.758Z,26.9
2022-10-21T12:26:10.956Z,27.1
2022-10-21T12:27:13.143Z,26.8
2022-10-21T12:28:15.626Z,26.8
2022-10-21T12:29:17.576Z,26.8
2022-10-21T12:30:22.072Z,26.9
2022-10-21T12:31:25.035Z,26.7
2022-10-21T12:32:27.243Z,26.9
2022-10-21T12:33:29.732Z,26.8
2022-10-21T12:34:31.480Z,26.9
2022-10-21T12:35:33.998Z,26.9
2022-10-21T12:36:36.252Z,26.8
2022-10-21T12:37:38.731Z,26.8
2022-10-21T12:38:42.313Z,26.8
2022-10-21T12:39:44.526Z,26.9
2022-10-21T12:40:46.747Z,26.7
2022-10-21T12:41:49.219Z,26.8
2022-10-21T12:42:51.407Z,26.8
2022-10-21T12:43:53.609Z,26.8
2022-10-21T12:44:56.080Z,26.8
2022-10-21T12:45:58.006Z,27.2
2022-10-21T12:47:00.492Z,27
2022-10-21T12:48:02.996Z,26.9
2022-10-21T12:49:05.477Z,26.9
2022-10-21T12:50:08.033Z,27
2022-10-21T12:51:10.257Z,26.9
2022-10-21T12:52:12.762Z,26.8
2022-10-21T12:53:14.976Z,27
2022-10-21T12:54:17.553Z,26.9
2022-10-21T12:55:19.241Z,26.7
2022-10-21T12:56:21.199Z,26.8
2022-10-21T12:57:23.397Z,27
2022-10-21T12:58:25.624Z,27
2022-10-21T12:59:28.089Z,27
2022-10-21T13:00:30.580Z,26.9
2022-10-21T13:01:33.093Z,27
2022-10-21T13:02:35.620Z,26.7
2022-10-21T13:03:39.120Z,26.9
2022-10-21T13:04:41.050Z,27
2022-10-21T13:05:43.538Z,26.9
2022-10-21T13:06:46.033Z,26.8
2022-10-21T13:07:48.597Z,27
2022-10-21T13:08:51.152Z,26.8
2022-10-21T13:09:54.232Z,26.9
2022-10-21T13:10:56.209Z,27
2022-10-21T13:11:58.430Z,26.9
2022-10-21T13:13:00.642Z,26.8
2022-10-21T13:14:03.166Z,27.1
2022-10-21T13:15:05.380Z,27
2022-10-21T13:16:07.580Z,27
2022-10-21T13:17:10.069Z,26.8
2022-10-21T13:18:12.542Z,27
2022-10-21T13:19:14.746Z,26.9
2022-10-21T13:20:16.949Z,26.9
2022-10-21T13:21:20.664Z,26.7
2022-10-21T13:22:23.536Z,26.9
2022-10-21T13:23:26.021Z,27.1
2022-10-21T13:24:27.949Z,27
2022-10-21T13:25:30.484Z,27.1
2022-10-21T13:26:32.709Z,27
2022-10-21T13:28:37.632Z,27
2022-10-21T13:29:39.832Z,26.8
2022-10-21T13:30:42.037Z,26.8
2022-10-21T13:31:44.517Z,27
2022-10-21T13:32:48.368Z,27
2022-10-21T13:33:50.763Z,26.9
2022-10-21T13:34:53.894Z,27
2022-10-21T13:35:56.798Z,26.9
2022-10-21T13:36:59.445Z,26.7
2022-10-21T13:38:01.924Z,26.9
2022-10-21T13:39:03.861Z,26.9
2022-10-21T13:40:07.367Z,26.9
2022-10-21T13:41:09.623Z,27
2022-10-21T13:42:15.563Z,26.8
2022-10-21T13:43:16.832Z,26.9
2022-10-21T13:44:19.033Z,26.9
2022-10-21T13:45:21.519Z,26.8
2022-10-21T13:46:23.478Z,26.9
2022-10-21T13:47:25.654Z,26.9
2022-10-21T13:48:27.856Z,26.8
2022-10-21T13:49:29.794Z,26.7
2022-10-21T13:50:31.696Z,26.8
2022-10-21T13:51:33.896Z,26.9
2022-10-21T13:52:36.395Z,26.9
2022-10-21T13:53:38.889Z,26.9
2022-10-21T13:55:44.152Z,27
2022-10-21T13:56:46.698Z,26.9
2022-10-21T13:57:49.180Z,26.9
2022-10-21T13:58:51.658Z,26.8
2022-10-21T13:59:53.676Z,26.8
2022-10-21T14:00:57.765Z,27
2022-10-21T14:02:00.848Z,26.8
2022-10-21T14:03:03.049Z,26.8
2022-10-21T14:04:06.550Z,26.9
2022-10-21T14:05:10.539Z,26.8
2022-10-21T14:06:12.724Z,26.8
2022-10-21T14:07:14.717Z,26.9
2022-10-21T14:08:17.208Z,27